sensor_id;sensor_type;location;lat;lon;timestamp;pressure;altitude;pressure_sealevel;temperature;humidity
76726;BME280;65651;53.154;17.916;2023-04-24T00:00:04;100016.31;;;11.88;77.25
76726;BME280;65651;53.154;17.916;2023-04-24T00:02:59;100016.24;;;11.91;77.44
76726;BME280;65651;53.154;17.916;2023-04-24T00:05:27;100012.73;;;11.90;77.56
76726;BME280;65651;53.154;17.916;2023-04-24T00:07:54;100014.28;;;11.90;77.53
76726;BME280;65651;53.154;17.916;2023-04-24T00:10:22;100008.92;;;11.90;77.52
76726;BME280;65651;53.154;17.916;2023-04-24T00:12:49;100004.55;;;11.91;77.42
76726;BME280;65651;53.154;17.916;2023-04-24T00:15:17;100002.09;;;11.90;77.69
76726;BME280;65651;53.154;17.916;2023-04-24T00:17:44;99994.93;;;11.90;77.73
76726;BME280;65651;53.154;17.916;2023-04-24T00:20:12;99991.37;;;11.88;77.66
76726;BME280;65651;53.154;17.916;2023-04-24T00:22:39;99987.63;;;11.86;77.86
76726;BME280;65651;53.154;17.916;2023-04-24T00:25:07;99989.86;;;11.85;77.91
76726;BME280;65651;53.154;17.916;2023-04-24T00:27:37;99987.21;;;11.84;77.90
76726;BME280;65651;53.154;17.916;2023-04-24T00:30:06;99988.36;;;11.84;77.82
76726;BME280;65651;53.154;17.916;2023-04-24T00:32:33;99991.63;;;11.83;78.03
76726;BME280;65651;53.154;17.916;2023-04-24T00:35:01;99987.92;;;11.83;77.91
76726;BME280;65651;53.154;17.916;2023-04-24T00:37:28;99988.64;;;11.82;78.03
76726;BME280;65651;53.154;17.916;2023-04-24T00:39:58;99985.34;;;11.80;78.12
76726;BME280;65651;53.154;17.916;2023-04-24T00:42:25;99977.14;;;11.78;78.08
76726;BME280;65651;53.154;17.916;2023-04-24T00:44:53;99967.14;;;11.76;78.38
76726;BME280;65651;53.154;17.916;2023-04-24T00:47:21;99968.42;;;11.74;78.43
76726;BME280;65651;53.154;17.916;2023-04-24T00:49:51;99971.58;;;11.71;78.45
76726;BME280;65651;53.154;17.916;2023-04-24T00:52:19;99976.64;;;11.71;78.44
76726;BME280;65651;53.154;17.916;2023-04-24T00:54:47;99975.39;;;11.71;78.43
76726;BME280;65651;53.154;17.916;2023-04-24T00:57:14;99975.18;;;11.71;78.37
76726;BME280;65651;53.154;17.916;2023-04-24T00:59:42;99968.58;;;11.71;78.41
76726;BME280;65651;53.154;17.916;2023-04-24T01:02:11;99970.10;;;11.72;78.39
76726;BME280;65651;53.154;17.916;2023-04-24T01:04:40;99967.44;;;11.71;78.63
76726;BME280;65651;53.154;17.916;2023-04-24T01:07:08;99970.56;;;11.71;78.62
76726;BME280;65651;53.154;17.916;2023-04-24T01:09:40;99966.02;;;11.71;78.65
76726;BME280;65651;53.154;17.916;2023-04-24T01:12:10;99964.44;;;11.71;78.78
76726;BME280;65651;53.154;17.916;2023-04-24T01:14:38;99966.28;;;11.70;78.78
76726;BME280;65651;53.154;17.916;2023-04-24T01:17:05;99961.54;;;11.70;78.75
76726;BME280;65651;53.154;17.916;2023-04-24T01:19:32;99960.59;;;11.70;78.78
76726;BME280;65651;53.154;17.916;2023-04-24T01:22:02;99954.40;;;11.69;78.88
76726;BME280;65651;53.154;17.916;2023-04-24T01:24:30;99952.20;;;11.68;78.86
76726;BME280;65651;53.154;17.916;2023-04-24T01:26:57;99950.61;;;11.66;78.82
76726;BME280;65651;53.154;17.916;2023-04-24T01:29:24;99950.20;;;11.65;78.94
76726;BME280;65651;53.154;17.916;2023-04-24T01:31:52;99947.52;;;11.63;79.08
76726;BME280;65651;53.154;17.916;2023-04-24T01:34:19;99948.74;;;11.62;79.19
76726;BME280;65651;53.154;17.916;2023-04-24T01:36:47;99950.11;;;11.59;79.31
76726;BME280;65651;53.154;17.916;2023-04-24T01:39:15;99945.96;;;11.57;79.25
76726;BME280;65651;53.154;17.916;2023-04-24T01:41:43;99948.98;;;11.56;79.20
76726;BME280;65651;53.154;17.916;2023-04-24T01:44:12;99947.93;;;11.56;79.24
76726;BME280;65651;53.154;17.916;2023-04-24T01:46:39;99946.34;;;11.55;79.24
76726;BME280;65651;53.154;17.916;2023-04-24T01:49:10;99944.00;;;11.54;79.30
76726;BME280;65651;53.154;17.916;2023-04-24T01:51:39;99939.02;;;11.52;79.58
76726;BME280;65651;53.154;17.916;2023-04-24T01:54:09;99939.14;;;11.49;79.60
76726;BME280;65651;53.154;17.916;2023-04-24T01:56:41;99942.36;;;11.48;79.64
76726;BME280;65651;53.154;17.916;2023-04-24T01:59:12;99939.93;;;11.47;79.63
76726;BME280;65651;53.154;17.916;2023-04-24T02:01:39;99940.79;;;11.47;79.57
76726;BME280;65651;53.154;17.916;2023-04-24T02:04:07;99943.28;;;11.48;79.70
76726;BME280;65651;53.154;17.916;2023-04-24T02:06:36;99944.05;;;11.47;79.69
76726;BME280;65651;53.154;17.916;2023-04-24T02:09:03;99942.59;;;11.47;79.79
76726;BME280;65651;53.154;17.916;2023-04-24T02:11:30;99937.94;;;11.47;79.74
76726;BME280;65651;53.154;17.916;2023-04-24T02:13:58;99938.64;;;11.47;79.94
76726;BME280;65651;53.154;17.916;2023-04-24T02:16:28;99936.54;;;11.47;79.84
76726;BME280;65651;53.154;17.916;2023-04-24T02:19:03;99931.08;;;11.47;79.92
76726;BME280;65651;53.154;17.916;2023-04-24T02:21:31;99927.64;;;11.47;79.96
76726;BME280;65651;53.154;17.916;2023-04-24T02:24:00;99926.20;;;11.48;79.93
76726;BME280;65651;53.154;17.916;2023-04-24T02:26:27;99922.27;;;11.48;80.00
76726;BME280;65651;53.154;17.916;2023-04-24T02:28:55;99922.47;;;11.47;80.19
76726;BME280;65651;53.154;17.916;2023-04-24T02:31:22;99917.15;;;11.47;80.24
76726;BME280;65651;53.154;17.916;2023-04-24T02:33:50;99920.45;;;11.47;80.03
76726;BME280;65651;53.154;17.916;2023-04-24T02:36:18;99918.15;;;11.47;80.25
76726;BME280;65651;53.154;17.916;2023-04-24T02:38:45;99919.60;;;11.49;80.12
76726;BME280;65651;53.154;17.916;2023-04-24T02:41:13;99912.88;;;11.49;80.24
76726;BME280;65651;53.154;17.916;2023-04-24T02:43:40;99907.39;;;11.50;80.25
76726;BME280;65651;53.154;17.916;2023-04-24T02:46:07;99896.98;;;11.50;80.09
76726;BME280;65651;53.154;17.916;2023-04-24T02:48:38;99891.55;;;11.50;80.31
76726;BME280;65651;53.154;17.916;2023-04-24T02:51:06;99888.95;;;11.50;80.29
76726;BME280;65651;53.154;17.916;2023-04-24T02:53:33;99891.15;;;11.49;80.26
76726;BME280;65651;53.154;17.916;2023-04-24T02:56:01;99890.58;;;11.49;80.37
76726;BME280;65651;53.154;17.916;2023-04-24T02:58:29;99893.41;;;11.50;80.30
76726;BME280;65651;53.154;17.916;2023-04-24T03:00:56;99896.16;;;11.51;80.28
76726;BME280;65651;53.154;17.916;2023-04-24T03:03:23;99896.42;;;11.52;80.38
76726;BME280;65651;53.154;17.916;2023-04-24T03:05:51;99897.95;;;11.54;80.56
76726;BME280;65651;53.154;17.916;2023-04-24T03:08:18;99903.85;;;11.56;80.55
76726;BME280;65651;53.154;17.916;2023-04-24T03:10:45;99903.67;;;11.60;80.51
76726;BME280;65651;53.154;17.916;2023-04-24T03:13:12;99904.81;;;11.62;80.68
76726;BME280;65651;53.154;17.916;2023-04-24T03:15:39;99904.27;;;11.64;80.51
76726;BME280;65651;53.154;17.916;2023-04-24T03:18:07;99908.33;;;11.66;80.62
76726;BME280;65651;53.154;17.916;2023-04-24T03:20:34;99910.61;;;11.68;80.63
76726;BME280;65651;53.154;17.916;2023-04-24T03:23:04;99911.48;;;11.70;80.57
76726;BME280;65651;53.154;17.916;2023-04-24T03:25:32;99911.55;;;11.73;80.57
76726;BME280;65651;53.154;17.916;2023-04-24T03:27:59;99908.81;;;11.75;80.67
76726;BME280;65651;53.154;17.916;2023-04-24T03:30:40;99909.55;;;11.76;80.66
76726;BME280;65651;53.154;17.916;2023-04-24T03:33:08;99909.67;;;11.77;80.79
76726;BME280;65651;53.154;17.916;2023-04-24T03:35:39;99913.42;;;11.78;80.83
76726;BME280;65651;53.154;17.916;2023-04-24T03:38:10;99914.27;;;11.79;80.69
76726;BME280;65651;53.154;17.916;2023-04-24T03:40:43;99909.98;;;11.81;80.92
76726;BME280;65651;53.154;17.916;2023-04-24T03:43:32;99915.48;;;11.81;81.16
76726;BME280;65651;53.154;17.916;2023-04-24T03:46:02;99916.14;;;11.81;80.90
76726;BME280;65651;53.154;17.916;2023-04-24T03:48:30;99907.13;;;11.80;81.18
76726;BME280;65651;53.154;17.916;2023-04-24T03:51:01;99901.22;;;11.78;81.31
76726;BME280;65651;53.154;17.916;2023-04-24T03:53:30;99899.40;;;11.77;81.12
76726;BME280;65651;53.154;17.916;2023-04-24T03:55:58;99900.75;;;11.76;81.22
76726;BME280;65651;53.154;17.916;2023-04-24T03:58:26;99898.90;;;11.75;81.28
76726;BME280;65651;53.154;17.916;2023-04-24T04:00:54;99900.30;;;11.74;81.28
76726;BME280;65651;53.154;17.916;2023-04-24T04:03:36;99896.44;;;11.71;81.30
76726;BME280;65651;53.154;17.916;2023-04-24T04:06:03;99890.63;;;11.69;81.70
76726;BME280;65651;53.154;17.916;2023-04-24T04:08:31;99890.39;;;11.66;81.65
76726;BME280;65651;53.154;17.916;2023-04-24T04:10:58;99888.90;;;11.63;81.61
76726;BME280;65651;53.154;17.916;2023-04-24T04:13:25;99887.03;;;11.61;81.82
76726;BME280;65651;53.154;17.916;2023-04-24T04:15:53;99892.11;;;11.60;81.90
76726;BME280;65651;53.154;17.916;2023-04-24T04:18:20;99891.35;;;11.61;81.87
76726;BME280;65651;53.154;17.916;2023-04-24T04:20:47;99887.33;;;11.61;81.83
76726;BME280;65651;53.154;17.916;2023-04-24T04:23:18;99887.76;;;11.64;81.87
76726;BME280;65651;53.154;17.916;2023-04-24T04:26:08;99880.69;;;11.68;81.83
76726;BME280;65651;53.154;17.916;2023-04-24T04:29:14;99868.23;;;11.71;81.82
76726;BME280;65651;53.154;17.916;2023-04-24T04:31:44;99867.05;;;11.72;82.04
76726;BME280;65651;53.154;17.916;2023-04-24T04:34:15;99863.61;;;11.71;82.24
76726;BME280;65651;53.154;17.916;2023-04-24T04:36:43;99870.46;;;11.72;82.06
76726;BME280;65651;53.154;17.916;2023-04-24T04:39:30;99867.95;;;11.75;82.31
76726;BME280;65651;53.154;17.916;2023-04-24T04:42:07;99871.79;;;11.79;82.12
76726;BME280;65651;53.154;17.916;2023-04-24T04:44:39;99867.29;;;11.85;82.46
76726;BME280;65651;53.154;17.916;2023-04-24T04:47:07;99865.71;;;11.89;82.41
76726;BME280;65651;53.154;17.916;2023-04-24T04:49:38;99866.40;;;11.91;82.64
76726;BME280;65651;53.154;17.916;2023-04-24T04:52:09;99867.22;;;11.95;82.45
76726;BME280;65651;53.154;17.916;2023-04-24T04:54:37;99863.70;;;11.99;82.63
76726;BME280;65651;53.154;17.916;2023-04-24T04:57:05;99864.23;;;12.02;82.38
76726;BME280;65651;53.154;17.916;2023-04-24T04:59:33;99860.91;;;12.07;82.51
76726;BME280;65651;53.154;17.916;2023-04-24T05:02:05;99857.77;;;12.18;82.48
76726;BME280;65651;53.154;17.916;2023-04-24T05:04:32;99854.79;;;12.28;82.12
76726;BME280;65651;53.154;17.916;2023-04-24T05:07:00;99854.05;;;12.44;82.11
76726;BME280;65651;53.154;17.916;2023-04-24T05:09:28;99849.05;;;12.62;82.04
76726;BME280;65651;53.154;17.916;2023-04-24T05:12:04;99845.66;;;12.79;82.15
76726;BME280;65651;53.154;17.916;2023-04-24T05:14:34;99844.19;;;12.88;82.07
76726;BME280;65651;53.154;17.916;2023-04-24T05:17:01;99843.27;;;12.95;81.96
76726;BME280;65651;53.154;17.916;2023-04-24T05:19:30;99839.43;;;13.01;81.98
76726;BME280;65651;53.154;17.916;2023-04-24T05:22:01;99839.70;;;13.09;81.94
76726;BME280;65651;53.154;17.916;2023-04-24T05:24:30;99838.03;;;13.21;81.52
76726;BME280;65651;53.154;17.916;2023-04-24T05:27:07;99839.01;;;13.35;81.45
76726;BME280;65651;53.154;17.916;2023-04-24T05:29:38;99836.22;;;13.56;81.30
76726;BME280;65651;53.154;17.916;2023-04-24T05:32:07;99835.33;;;13.85;81.14
76726;BME280;65651;53.154;17.916;2023-04-24T05:34:35;99836.66;;;14.59;80.73
76726;BME280;65651;53.154;17.916;2023-04-24T05:37:03;99830.94;;;15.75;79.92
76726;BME280;65651;53.154;17.916;2023-04-24T05:39:35;99831.34;;;17.83;78.28
76726;BME280;65651;53.154;17.916;2023-04-24T05:42:03;99828.45;;;19.60;76.91
76726;BME280;65651;53.154;17.916;2023-04-24T05:44:31;99824.96;;;20.14;76.14
76726;BME280;65651;53.154;17.916;2023-04-24T05:47:00;99841.31;;;19.87;75.52
76726;BME280;65651;53.154;17.916;2023-04-24T05:49:27;99849.95;;;19.43;75.03
76726;BME280;65651;53.154;17.916;2023-04-24T05:51:55;99840.66;;;18.84;74.97
76726;BME280;65651;53.154;17.916;2023-04-24T05:54:23;99838.33;;;18.30;74.69
76726;BME280;65651;53.154;17.916;2023-04-24T05:56:50;99831.23;;;17.81;74.72
76726;BME280;65651;53.154;17.916;2023-04-24T05:59:25;99831.58;;;17.42;74.77
76726;BME280;65651;53.154;17.916;2023-04-24T06:01:53;99834.13;;;17.09;74.60
76726;BME280;65651;53.154;17.916;2023-04-24T06:04:21;99833.89;;;16.79;74.58
76726;BME280;65651;53.154;17.916;2023-04-24T06:06:49;99846.19;;;16.50;74.68
76726;BME280;65651;53.154;17.916;2023-04-24T06:09:18;99840.17;;;16.21;74.83
76726;BME280;65651;53.154;17.916;2023-04-24T06:11:45;99840.31;;;16.06;74.85
76726;BME280;65651;53.154;17.916;2023-04-24T06:14:13;99839.30;;;16.00;74.86
76726;BME280;65651;53.154;17.916;2023-04-24T06:16:42;99834.34;;;15.99;74.84
76726;BME280;65651;53.154;17.916;2023-04-24T06:19:17;99824.15;;;16.18;74.53
76726;BME280;65651;53.154;17.916;2023-04-24T06:21:45;99817.61;;;16.41;74.25
76726;BME280;65651;53.154;17.916;2023-04-24T06:24:14;99816.85;;;16.73;73.96
76726;BME280;65651;53.154;17.916;2023-04-24T06:26:42;99816.38;;;17.11;73.65
76726;BME280;65651;53.154;17.916;2023-04-24T06:29:10;99810.41;;;19.16;71.77
76726;BME280;65651;53.154;17.916;2023-04-24T06:31:37;99807.18;;;21.39;70.11
76726;BME280;65651;53.154;17.916;2023-04-24T06:34:04;99809.52;;;21.36;70.25
76726;BME280;65651;53.154;17.916;2023-04-24T06:36:32;99803.37;;;21.05;70.00
76726;BME280;65651;53.154;17.916;2023-04-24T06:39:01;99801.81;;;20.65;69.32
76726;BME280;65651;53.154;17.916;2023-04-24T06:41:29;99791.58;;;20.07;68.63
76726;BME280;65651;53.154;17.916;2023-04-24T06:43:56;99800.48;;;19.43;68.48
76726;BME280;65651;53.154;17.916;2023-04-24T06:46:24;99797.97;;;18.86;68.84
76726;BME280;65651;53.154;17.916;2023-04-24T06:48:56;99800.98;;;18.38;68.84
76726;BME280;65651;53.154;17.916;2023-04-24T06:51:24;99798.30;;;17.90;68.75
76726;BME280;65651;53.154;17.916;2023-04-24T06:53:53;99803.73;;;17.66;68.86
76726;BME280;65651;53.154;17.916;2023-04-24T06:56:22;99802.52;;;17.65;68.97
76726;BME280;65651;53.154;17.916;2023-04-24T06:58:49;99804.02;;;17.69;68.78
76726;BME280;65651;53.154;17.916;2023-04-24T07:01:17;99801.27;;;17.75;68.75
76726;BME280;65651;53.154;17.916;2023-04-24T07:03:44;99799.91;;;17.78;68.78
76726;BME280;65651;53.154;17.916;2023-04-24T07:06:12;99799.95;;;17.83;68.60
76726;BME280;65651;53.154;17.916;2023-04-24T07:08:40;99800.41;;;17.87;68.35
76726;BME280;65651;53.154;17.916;2023-04-24T07:11:11;99799.89;;;17.92;68.18
76726;BME280;65651;53.154;17.916;2023-04-24T07:13:38;99801.80;;;18.00;67.91
76726;BME280;65651;53.154;17.916;2023-04-24T07:16:08;99799.76;;;18.09;67.69
76726;BME280;65651;53.154;17.916;2023-04-24T07:18:36;99801.02;;;18.11;67.56
76726;BME280;65651;53.154;17.916;2023-04-24T07:21:04;99795.46;;;18.09;67.19
76726;BME280;65651;53.154;17.916;2023-04-24T07:23:31;99793.56;;;18.03;67.04
76726;BME280;65651;53.154;17.916;2023-04-24T07:25:58;99790.84;;;17.90;66.55
76726;BME280;65651;53.154;17.916;2023-04-24T07:28:26;99790.98;;;17.83;66.60
76726;BME280;65651;53.154;17.916;2023-04-24T07:30:53;99791.17;;;17.75;66.45
76726;BME280;65651;53.154;17.916;2023-04-24T07:33:21;99789.90;;;17.70;65.86
76726;BME280;65651;53.154;17.916;2023-04-24T07:35:48;99790.82;;;17.68;65.48
76726;BME280;65651;53.154;17.916;2023-04-24T07:38:17;99790.94;;;17.67;65.39
76726;BME280;65651;53.154;17.916;2023-04-24T07:40:48;99788.70;;;17.64;64.74
76726;BME280;65651;53.154;17.916;2023-04-24T07:43:15;99790.83;;;17.69;64.99
76726;BME280;65651;53.154;17.916;2023-04-24T07:45:43;99789.20;;;17.91;64.63
76726;BME280;65651;53.154;17.916;2023-04-24T07:48:10;99793.11;;;18.24;63.90
76726;BME280;65651;53.154;17.916;2023-04-24T07:50:38;99786.91;;;18.59;63.52
76726;BME280;65651;53.154;17.916;2023-04-24T07:53:05;99780.97;;;18.82;62.94
76726;BME280;65651;53.154;17.916;2023-04-24T07:55:32;99780.29;;;18.89;62.23
76726;BME280;65651;53.154;17.916;2023-04-24T07:58:00;99784.66;;;18.95;61.87
76726;BME280;65651;53.154;17.916;2023-04-24T08:00:27;99784.55;;;19.03;61.01
76726;BME280;65651;53.154;17.916;2023-04-24T08:02:58;99784.08;;;19.14;60.00
76726;BME280;65651;53.154;17.916;2023-04-24T08:05:25;99784.67;;;19.20;60.17
76726;BME280;65651;53.154;17.916;2023-04-24T08:07:55;99784.93;;;19.18;59.47
76726;BME280;65651;53.154;17.916;2023-04-24T08:10:25;99786.73;;;19.16;59.13
76726;BME280;65651;53.154;17.916;2023-04-24T08:12:52;99780.85;;;19.16;58.47
76726;BME280;65651;53.154;17.916;2023-04-24T08:15:19;99785.65;;;19.27;57.66
76726;BME280;65651;53.154;17.916;2023-04-24T08:17:47;99782.61;;;19.76;57.35
76726;BME280;65651;53.154;17.916;2023-04-24T08:20:14;99780.06;;;20.17;56.18
76726;BME280;65651;53.154;17.916;2023-04-24T08:22:42;99784.05;;;20.30;55.84
76726;BME280;65651;53.154;17.916;2023-04-24T08:25:10;99780.15;;;20.33;54.83
76726;BME280;65651;53.154;17.916;2023-04-24T08:27:38;99777.81;;;20.49;54.96
76726;BME280;65651;53.154;17.916;2023-04-24T08:30:07;99771.70;;;20.60;53.79
76726;BME280;65651;53.154;17.916;2023-04-24T08:32:37;99771.03;;;20.43;53.48
76726;BME280;65651;53.154;17.916;2023-04-24T08:35:05;99770.21;;;20.11;52.44
76726;BME280;65651;53.154;17.916;2023-04-24T08:37:32;99775.09;;;19.73;52.41
76726;BME280;65651;53.154;17.916;2023-04-24T08:40:01;99771.71;;;19.50;52.42
76726;BME280;65651;53.154;17.916;2023-04-24T08:42:28;99768.02;;;19.32;52.23
76726;BME280;65651;53.154;17.916;2023-04-24T08:44:59;99767.19;;;19.18;52.26
76726;BME280;65651;53.154;17.916;2023-04-24T08:47:27;99763.27;;;19.20;52.58
76726;BME280;65651;53.154;17.916;2023-04-24T08:49:57;99764.37;;;19.32;52.05
76726;BME280;65651;53.154;17.916;2023-04-24T08:52:26;99765.41;;;19.61;51.78
76726;BME280;65651;53.154;17.916;2023-04-24T08:54:56;99763.77;;;19.75;51.04
76726;BME280;65651;53.154;17.916;2023-04-24T08:57:24;99760.00;;;19.88;50.86
76726;BME280;65651;53.154;17.916;2023-04-24T08:59:53;99758.38;;;19.88;50.66
76726;BME280;65651;53.154;17.916;2023-04-24T09:02:21;99760.52;;;20.03;50.56
76726;BME280;65651;53.154;17.916;2023-04-24T09:04:50;99765.38;;;20.27;49.73
76726;BME280;65651;53.154;17.916;2023-04-24T09:07:19;99764.14;;;20.47;49.09
76726;BME280;65651;53.154;17.916;2023-04-24T09:09:48;99764.95;;;20.62;48.82
76726;BME280;65651;53.154;17.916;2023-04-24T09:12:17;99764.71;;;20.60;48.36
76726;BME280;65651;53.154;17.916;2023-04-24T09:14:45;99767.27;;;20.27;48.35
76726;BME280;65651;53.154;17.916;2023-04-24T09:17:13;99765.86;;;20.16;48.70
76726;BME280;65651;53.154;17.916;2023-04-24T09:19:40;99768.45;;;20.14;48.72
76726;BME280;65651;53.154;17.916;2023-04-24T09:22:09;99767.98;;;20.17;48.84
76726;BME280;65651;53.154;17.916;2023-04-24T09:24:38;99768.98;;;20.21;48.69
76726;BME280;65651;53.154;17.916;2023-04-24T09:27:06;99766.82;;;20.30;48.53
76726;BME280;65651;53.154;17.916;2023-04-24T09:29:35;99764.29;;;20.43;48.39
76726;BME280;65651;53.154;17.916;2023-04-24T09:32:19;99765.15;;;20.46;48.00
76726;BME280;65651;53.154;17.916;2023-04-24T09:34:48;99767.87;;;20.49;48.16
76726;BME280;65651;53.154;17.916;2023-04-24T09:37:42;99766.42;;;20.38;47.95
76726;BME280;65651;53.154;17.916;2023-04-24T09:40:19;99760.54;;;20.17;47.90
76726;BME280;65651;53.154;17.916;2023-04-24T09:42:53;99762.80;;;20.16;47.59
76726;BME280;65651;53.154;17.916;2023-04-24T09:45:20;99756.06;;;20.19;47.07
76726;BME280;65651;53.154;17.916;2023-04-24T09:47:52;99753.45;;;20.27;46.51
76726;BME280;65651;53.154;17.916;2023-04-24T09:50:22;99751.55;;;20.09;46.20
76726;BME280;65651;53.154;17.916;2023-04-24T09:53:02;99748.09;;;20.00;46.48
76726;BME280;65651;53.154;17.916;2023-04-24T09:55:31;99743.90;;;19.96;46.22
76726;BME280;65651;53.154;17.916;2023-04-24T09:57:59;99747.71;;;19.86;46.29
76726;BME280;65651;53.154;17.916;2023-04-24T10:00:29;99745.02;;;20.01;46.27
76726;BME280;65651;53.154;17.916;2023-04-24T10:02:58;99747.70;;;20.35;45.99
76726;BME280;65651;53.154;17.916;2023-04-24T10:05:29;99747.27;;;20.47;45.77
76726;BME280;65651;53.154;17.916;2023-04-24T10:08:12;99737.16;;;20.50;45.53
76726;BME280;65651;53.154;17.916;2023-04-24T10:10:45;99735.02;;;20.66;45.39
76726;BME280;65651;53.154;17.916;2023-04-24T10:13:14;99729.80;;;20.82;45.45
76726;BME280;65651;53.154;17.916;2023-04-24T10:15:45;99727.23;;;21.09;45.46
76726;BME280;65651;53.154;17.916;2023-04-24T10:18:15;99725.62;;;21.48;45.20
76726;BME280;65651;53.154;17.916;2023-04-24T10:20:43;99721.83;;;21.87;44.31
76726;BME280;65651;53.154;17.916;2023-04-24T10:23:10;99719.44;;;21.93;44.35
76726;BME280;65651;53.154;17.916;2023-04-24T10:25:42;99717.20;;;21.88;44.12
76726;BME280;65651;53.154;17.916;2023-04-24T10:28:09;99723.72;;;21.73;43.99
76726;BME280;65651;53.154;17.916;2023-04-24T10:30:38;99724.09;;;21.43;44.15
76726;BME280;65651;53.154;17.916;2023-04-24T10:33:10;99720.48;;;21.17;44.45
76726;BME280;65651;53.154;17.916;2023-04-24T10:35:44;99721.95;;;21.11;44.48
76726;BME280;65651;53.154;17.916;2023-04-24T10:38:13;99722.71;;;21.08;44.71
76726;BME280;65651;53.154;17.916;2023-04-24T10:40:42;99725.21;;;21.35;44.53
76726;BME280;65651;53.154;17.916;2023-04-24T10:43:10;99726.23;;;21.45;44.42
76726;BME280;65651;53.154;17.916;2023-04-24T10:46:00;99725.44;;;21.69;44.23
76726;BME280;65651;53.154;17.916;2023-04-24T10:48:28;99724.93;;;21.96;44.30
76726;BME280;65651;53.154;17.916;2023-04-24T10:50:57;99727.48;;;22.25;44.02
76726;BME280;65651;53.154;17.916;2023-04-24T10:53:27;99728.31;;;22.37;43.55
76726;BME280;65651;53.154;17.916;2023-04-24T10:56:08;99727.77;;;22.27;43.75
76726;BME280;65651;53.154;17.916;2023-04-24T10:58:50;99727.60;;;22.27;43.62
76726;BME280;65651;53.154;17.916;2023-04-24T11:01:31;99731.38;;;22.26;43.37
76726;BME280;65651;53.154;17.916;2023-04-24T11:04:01;99732.89;;;22.31;43.56
76726;BME280;65651;53.154;17.916;2023-04-24T11:06:33;99733.48;;;22.44;43.29
76726;BME280;65651;53.154;17.916;2023-04-24T11:09:09;99729.76;;;22.50;42.98
76726;BME280;65651;53.154;17.916;2023-04-24T11:11:44;99722.88;;;22.52;43.22
76726;BME280;65651;53.154;17.916;2023-04-24T11:14:15;99718.52;;;22.63;42.94
76726;BME280;65651;53.154;17.916;2023-04-24T11:17:01;99722.02;;;22.72;42.91
76726;BME280;65651;53.154;17.916;2023-04-24T11:19:28;99720.86;;;22.94;42.91
76726;BME280;65651;53.154;17.916;2023-04-24T11:22:01;99724.55;;;22.80;42.57
76726;BME280;65651;53.154;17.916;2023-04-24T11:29:44;99727.85;;;22.22;43.37
76726;BME280;65651;53.154;17.916;2023-04-24T11:32:26;99733.73;;;22.06;43.49
76726;BME280;65651;53.154;17.916;2023-04-24T11:40:01;99731.91;;;21.86;43.97
76726;BME280;65651;53.154;17.916;2023-04-24T11:42:34;99732.90;;;21.82;44.35
76726;BME280;65651;53.154;17.916;2023-04-24T11:45:07;99735.89;;;21.64;44.78
76726;BME280;65651;53.154;17.916;2023-04-24T11:47:35;99739.58;;;21.47;45.29
76726;BME280;65651;53.154;17.916;2023-04-24T11:50:05;99732.76;;;21.30;45.76
76726;BME280;65651;53.154;17.916;2023-04-24T11:52:37;99732.05;;;21.30;45.78
76726;BME280;65651;53.154;17.916;2023-04-24T11:55:07;99731.66;;;21.24;45.17
76726;BME280;65651;53.154;17.916;2023-04-24T11:57:37;99729.55;;;21.27;45.43
76726;BME280;65651;53.154;17.916;2023-04-24T12:00:05;99728.58;;;21.36;45.96
76726;BME280;65651;53.154;17.916;2023-04-24T12:02:39;99729.29;;;21.41;45.94
76726;BME280;65651;53.154;17.916;2023-04-24T12:05:07;99728.30;;;21.33;46.24
76726;BME280;65651;53.154;17.916;2023-04-24T12:07:41;99723.92;;;21.29;46.56
76726;BME280;65651;53.154;17.916;2023-04-24T12:10:14;99722.09;;;21.22;46.64
76726;BME280;65651;53.154;17.916;2023-04-24T12:12:42;99721.92;;;21.15;46.89
76726;BME280;65651;53.154;17.916;2023-04-24T12:15:15;99722.76;;;21.20;46.91
76726;BME280;65651;53.154;17.916;2023-04-24T12:17:43;99718.25;;;21.35;46.83
76726;BME280;65651;53.154;17.916;2023-04-24T12:20:12;99721.59;;;21.56;46.74
76726;BME280;65651;53.154;17.916;2023-04-24T12:22:52;99718.48;;;21.62;45.92
76726;BME280;65651;53.154;17.916;2023-04-24T12:25:29;99718.67;;;21.33;46.01
76726;BME280;65651;53.154;17.916;2023-04-24T12:30:32;99716.77;;;21.01;46.53
76726;BME280;65651;53.154;17.916;2023-04-24T12:33:02;99715.23;;;21.02;46.80
76726;BME280;65651;53.154;17.916;2023-04-24T12:35:32;99712.85;;;21.03;46.95
76726;BME280;65651;53.154;17.916;2023-04-24T12:38:10;99713.95;;;20.96;46.83
76726;BME280;65651;53.154;17.916;2023-04-24T12:40:40;99710.71;;;20.93;46.98
76726;BME280;65651;53.154;17.916;2023-04-24T12:43:20;99708.23;;;20.95;47.12
76726;BME280;65651;53.154;17.916;2023-04-24T12:45:50;99707.44;;;21.07;47.22
76726;BME280;65651;53.154;17.916;2023-04-24T12:48:17;99704.80;;;21.16;47.10
76726;BME280;65651;53.154;17.916;2023-04-24T12:50:44;99704.14;;;21.20;46.99
76726;BME280;65651;53.154;17.916;2023-04-24T12:53:12;99703.63;;;21.13;47.18
76726;BME280;65651;53.154;17.916;2023-04-24T12:55:39;99700.16;;;21.12;47.30
76726;BME280;65651;53.154;17.916;2023-04-24T12:58:10;99696.73;;;21.15;47.34
76726;BME280;65651;53.154;17.916;2023-04-24T13:00:38;99697.93;;;21.24;47.44
76726;BME280;65651;53.154;17.916;2023-04-24T13:03:06;99697.86;;;21.26;47.54
76726;BME280;65651;53.154;17.916;2023-04-24T13:05:33;99694.48;;;21.19;47.77
76726;BME280;65651;53.154;17.916;2023-04-24T13:08:00;99691.66;;;21.16;48.06
76726;BME280;65651;53.154;17.916;2023-04-24T13:10:27;99690.55;;;21.13;48.44
76726;BME280;65651;53.154;17.916;2023-04-24T13:12:55;99692.80;;;21.11;48.62
76726;BME280;65651;53.154;17.916;2023-04-24T13:15:22;99687.70;;;20.97;48.96